Time;durP1;ratioP1;P1;durP2;ratioP2;P2;SDS_P1;SDS_P2;PMS_P1;PMS_P2;Temp;Humidity;BMP_temperature;BMP_pressure;BME280_temperature;BME280_humidity;BME280_pressure;Samples;Min_cycle;Max_cycle;Signal;HPM_P1;HPM_P2
2024/01/04 00:05:06;;;;;;;0.57;0.30;;;;;;;;;;20958418;28;20229;-79
2024/01/04 00:15:08;;;;;;;1.80;0.50;;;;;;;;;;20941704;28;20234;-80
2024/01/04 00:25:10;;;;;;;0.67;0.20;;;;;;;;;;20950120;28;20278;-79
2024/01/04 00:35:11;;;;;;;0.20;0.10;;;;;;;;;;20951231;28;20213;-79
2024/01/04 00:45:13;;;;;;;1.07;0.20;;;;;;;;;;20955514;28;20328;-79
2024/01/04 00:55:15;;;;;;;0.40;0.37;;;;;;;;;;20989787;28;20279;-80
2024/01/04 01:05:17;;;;;;;0.57;0.20;;;;;;;;;;20969243;28;20251;-80
2024/01/04 01:15:19;;;;;;;1.00;0.30;;;;;;;;;;20983292;28;20217;-80
2024/01/04 01:25:20;;;;;;;0.23;0.20;;;;;;;;;;20961802;28;20194;-81
2024/01/04 01:35:22;;;;;;;0.67;0.23;;;9.30;99.90;;;;;;20996647;28;20270;-80
2024/01/04 01:45:23;;;;;;;1.93;0.47;;;;;;;;;;20962201;28;20235;-80
2024/01/04 01:55:25;;;;;;;0.20;0.20;;;;;;;;;;20956657;28;20213;-81
2024/01/04 02:05:28;;;;;;;0.50;0.30;;;;;;;;;;20925237;28;20217;-81
2024/01/04 02:15:30;;;;;;;1.17;0.30;;;;;;;;;;20938892;28;20597;-80
2024/01/04 02:25:32;;;;;;;0.33;0.30;;;;;;;;;;20976548;28;20214;-79
2024/01/04 02:35:34;;;;;;;1.50;0.27;;;;;;;;;;20955582;28;20278;-81
2024/01/04 02:45:36;;;;;;;0.20;0.10;;;;;;;;;;20995645;28;20221;-80
2024/01/04 02:55:38;;;;;;;1.03;0.30;;;;;;;;;;20981921;28;20251;-80
2024/01/04 03:05:39;;;;;;;2.03;0.37;;;;;;;;;;20981682;28;20217;-79
2024/01/04 03:15:41;;;;;;;1.13;0.50;;;;;;;;;;20961494;28;20585;-81
2024/01/04 03:25:43;;;;;;;0.30;0.20;;;;;;;;;;20984042;28;20209;-82
2024/01/04 03:35:44;;;;;;;1.27;0.37;;;;;;;;;;20986304;28;20217;-80
2024/01/04 03:45:46;;;;;;;0.20;0.20;;;;;;;;;;20967415;28;20221;-79
2024/01/04 03:55:48;;;;;;;0.20;0.20;;;;;;;;;;20968423;28;20283;-82
2024/01/04 04:05:50;;;;;;;0.70;0.30;;;;;;;;;;20955366;28;20225;-79
2024/01/04 04:15:52;;;;;;;0.40;0.27;;;;;;;;;;20953592;28;20217;-81
2024/01/04 04:25:53;;;;;;;1.80;0.30;;;;;;;;;;20982059;28;20258;-79
2024/01/04 04:35:55;;;;;;;0.97;0.20;;;;;;;;;;20949706;28;20218;-81
2024/01/04 04:45:57;;;;;;;0.73;0.20;;;;;;;;;;20977023;28;20751;-80
2024/01/04 04:55:58;;;;;;;0.50;0.30;;;;;;;;;;20986299;28;20287;-79
2024/01/04 05:06:00;;;;;;;1.40;0.40;;;;;;;;;;20988516;28;20217;-81
2024/01/04 05:16:02;;;;;;;0.20;0.20;;;;;;;;;;20955104;28;20221;-78
2024/01/04 05:26:04;;;;;;;0.70;0.30;;;;;;;;;;20950638;28;20255;-79
2024/01/04 05:36:06;;;;;;;1.03;0.30;;;;;;;;;;20980010;28;20229;-79
2024/01/04 05:46:08;;;;;;;0.53;0.40;;;;;;;;;;20960193;28;20212;-79
2024/01/04 05:56:09;;;;;;;0.10;0.10;;;;;;;;;;20979099;28;20225;-78
2024/01/04 06:06:14;;;;;;;0.20;0.20;;;;;;;;;;20984853;28;20278;-79
2024/01/04 06:16:18;;;;;;;0.10;0.10;;;;;;;;;;20973022;28;20274;-79
2024/01/04 06:26:20;;;;;;;1.17;0.30;;;8.80;99.90;;;;;;20994862;28;20185;-80
2024/01/04 06:36:22;;;;;;;0.20;0.20;;;;;;;;;;20997125;28;20217;-80
2024/01/04 06:46:24;;;;;;;0.30;0.30;;;;;;;;;;20981256;28;20197;-78
2024/01/04 06:56:25;;;;;;;2.03;1.13;;;;;;;;;;20969626;28;20214;-79
2024/01/04 07:16:32;;;;;;;2.80;1.57;;;;;;;;;;21174220;27;20564;-71
2024/01/04 07:26:33;;;;;;;2.10;0.33;;;;;;;;;;21091655;28;20211;-70
2024/01/04 07:36:35;;;;;;;0.40;0.20;;;;;;;;;;21104163;28;20220;-70
2024/01/04 07:46:37;;;;;;;1.53;0.40;;;;;;;;;;21102372;28;20212;-70
2024/01/04 07:56:40;;;;;;;2.80;0.70;;;;;;;;;;21119652;28;20224;-70
2024/01/04 08:06:41;;;;;;;0.73;0.50;;;;;;;;;;21118407;28;20212;-70
2024/01/04 08:16:43;;;;;;;2.83;1.03;;;;;;;;;;21118082;28;20282;-71
2024/01/04 08:26:46;;;;;;;1.03;0.53;;;;;;;;;;21051298;28;20220;-69
2024/01/04 08:36:48;;;;;;;2.97;0.70;;;;;;;;;;21060131;28;20209;-69
2024/01/04 08:46:50;;;;;;;1.03;0.50;;;7.20;99.90;;;;;;21034489;28;20270;-69
2024/01/04 08:56:52;;;;;;;1.53;0.57;;;;;;;;;;21042517;28;20771;-70
2024/01/04 09:06:54;;;;;;;1.60;0.60;;;;;;;;;;21025470;28;20293;-70
2024/01/04 09:16:55;;;;;;;2.60;0.70;;;;;;;;;;21028137;28;20633;-69
2024/01/04 09:26:57;;;;;;;3.90;0.53;;;;;;;;;;21032578;28;20687;-70
2024/01/04 09:37:00;;;;;;;2.10;0.40;;;;;;;;;;21054035;28;20293;-69
2024/01/04 09:47:10;;;;;;;2.50;0.37;;;;;;;;;;21036799;28;20216;-70
2024/01/04 09:57:11;;;;;;;1.27;0.60;;;;;;;;;;21032919;28;20636;-68
2024/01/04 10:07:21;;;;;;;4.40;0.90;;;9.50;99.90;;;;;;21020113;28;20274;-70
2024/01/04 10:17:23;;;;;;;2.37;0.90;;;;;;;;;;21055045;28;20258;-68
2024/01/04 10:27:25;;;;;;;2.97;0.90;;;;;;;;;;21032288;28;20220;-68
2024/01/04 10:37:27;;;;;;;3.97;0.70;;;;;;;;;;21018292;28;20220;-68
2024/01/04 10:47:29;;;;;;;4.57;0.97;;;;;;;;;;21029812;28;20277;-70
2024/01/04 10:57:33;;;;;;;1.07;0.60;;;;;;;;;;21017804;28;20216;-70
2024/01/04 11:07:40;;;;;;;0.53;0.50;;;10.10;99.90;;;;;;21030030;28;20228;-70
2024/01/04 11:17:42;;;;;;;2.30;0.77;;;;;;;;;;21017888;28;20216;-69
2024/01/04 11:27:44;;;;;;;1.83;0.60;;;10.10;99.90;;;;;;21048257;28;20216;-69
2024/01/04 11:37:51;;;;;;;0.60;0.40;;;;;;;;;;21014684;28;20224;-70
2024/01/04 11:47:53;;;;;;;2.23;0.97;;;;;;;;;;21047748;28;20209;-70
2024/01/04 11:58:05;;;;;;;1.03;0.57;;;;;;;;;;21024243;28;20224;-70
2024/01/04 12:08:07;;;;;;;1.60;0.50;;;;;;;;;;21056834;28;20293;-70
2024/01/04 12:18:09;;;;;;;2.20;0.87;;;;;;;;;;21045386;28;20289;-70
2024/01/04 12:28:13;;;;;;;2.47;0.60;;;;;;;;;;21061018;28;20212;-69
2024/01/04 12:38:24;;;;;;;1.13;0.50;;;;;;;;;;21022649;28;20217;-70
2024/01/04 12:48:26;;;;;;;2.00;0.80;;;;;;;;;;21051582;28;20607;-71
2024/01/04 12:58:29;;;;;;;0.70;0.40;;;;;;;;;;21059064;28;20266;-70
2024/01/04 13:08:30;;;;;;;1.57;0.60;;;;;;;;;;21025678;28;20289;-70
2024/01/04 13:18:32;;;;;;;0.30;0.30;;;;;;;;;;21056932;28;20679;-69
2024/01/04 13:28:34;;;;;;;2.43;0.60;;;;;;;;;;21023300;28;20740;-71
2024/01/04 13:38:37;;;;;;;2.90;1.03;;;;;;;;;;21038718;28;20273;-70
2024/01/04 13:48:38;;;;;;;2.07;0.80;;;;;;;;;;21037634;28;20212;-70
2024/01/04 13:58:41;;;;;;;1.03;0.50;;;;;;;;;;21036589;28;20228;-69
2024/01/04 14:08:45;;;;;;;1.13;0.67;;;;;;;;;;21024893;28;20228;-69
2024/01/04 14:18:47;;;;;;;1.70;0.63;;;;;;;;;;21030404;28;20228;-69
2024/01/04 14:28:49;;;;;;;1.60;0.80;;;;;;;;;;21018965;28;20219;-70
2024/01/04 14:38:51;;;;;;;0.80;0.43;;;;;;;;;;21034007;28;20773;-70
2024/01/04 14:48:53;;;;;;;1.97;0.80;;;;;;;;;;21023113;28;20216;-69
2024/01/04 14:58:55;;;;;;;1.53;0.53;;;;;;;;;;21020128;28;20274;-69
2024/01/04 15:08:57;;;;;;;2.13;0.87;;;;;;;;;;21049087;28;20220;-68
2024/01/04 15:18:59;;;;;;;2.53;0.73;;;;;;;;;;21022373;28;20775;-69
2024/01/04 15:29:02;;;;;;;1.37;0.43;;;;;;;;;;21024049;28;20242;-70
2024/01/04 15:39:03;;;;;;;5.13;0.67;;;;;;;;;;21025830;28;20258;-70
2024/01/04 15:49:06;;;;;;;2.97;0.60;;;;;;;;;;21041997;28;20266;-69
2024/01/04 15:59:08;;;;;;;4.10;0.70;;;;;;;;;;21036480;28;20217;-69
2024/01/04 16:09:10;;;;;;;1.73;0.77;;;;;;;;;;20958956;22;20310;-67
2024/01/04 16:19:12;;;;;;;2.57;0.70;;;;;;;;;;20862166;28;20226;-67
2024/01/04 16:29:14;;;;;;;2.23;0.70;;;;;;;;;;20835623;28;20676;-67
2024/01/04 16:39:16;;;;;;;1.90;0.90;;;;;;;;;;20871922;28;20222;-67
2024/01/04 16:49:17;;;;;;;1.80;0.60;;;;;;;;;;20840392;28;20257;-67
2024/01/04 16:59:20;;;;;;;2.80;0.50;;;;;;;;;;20825765;28;20218;-67
2024/01/04 17:09:43;;;;;;;1.20;0.60;;;;;;;;;;20856551;28;20290;-67
2024/01/04 17:19:45;;;;;;;2.20;0.67;;;;;;;;;;20847851;28;20217;-67
2024/01/04 17:29:47;;;;;;;1.53;0.43;;;;;;;;;;20847778;28;20249;-67
2024/01/04 17:39:49;;;;;;;2.03;0.93;;;;;;;;;;20870652;28;20222;-67
2024/01/04 17:49:50;;;;;;;4.17;1.90;;;;;;;;;;20864758;28;20263;-67
2024/01/04 17:59:52;;;;;;;2.73;1.70;;;;;;;;;;20839435;28;20681;-66
2024/01/04 18:09:54;;;;;;;2.73;1.10;;;;;;;;;;20857143;28;20206;-67
2024/01/04 18:19:56;;;;;;;2.10;0.90;;;;;;;;;;20824593;28;20221;-67
2024/01/04 18:29:57;;;;;;;5.10;1.80;;;;;;;;;;20836569;28;20224;-67
2024/01/04 18:39:59;;;;;;;3.27;1.30;;;;;;;;;;20854576;28;20213;-67
2024/01/04 18:50:01;;;;;;;3.63;1.00;;;;;;;;;;20836144;28;20233;-66
2024/01/04 19:00:08;;;;;;;4.57;1.30;;;8.10;99.90;;;;;;20820812;28;20360;-67
2024/01/04 19:10:21;;;;;;;2.87;1.17;;;;;;;;;;20832174;28;20251;-66
2024/01/04 19:20:24;;;;;;;3.47;1.50;;;;;;;;;;20850106;28;20225;-67
2024/01/04 19:30:26;;;;;;;4.93;1.63;;;;;;;;;;20863566;28;20276;-67
2024/01/04 19:40:28;;;;;;;2.97;1.30;;;8.10;99.90;;;;;;20833883;28;20646;-67
2024/01/04 19:50:30;;;;;;;4.43;1.53;;;;;;;;;;20814591;28;20214;-67
2024/01/04 20:00:31;;;;;;;0.90;0.63;;;;;;;;;;20824804;28;20253;-67
2024/01/04 20:10:33;;;;;;;3.13;1.17;;;;;;;;;;20840540;28;20697;-66
2024/01/04 20:20:48;;;;;;;3.33;1.00;;;;;;;;;;20868212;28;20238;-66
2024/01/04 20:30:51;;;;;;;7.73;1.30;;;;;;;;;;20866915;28;20234;-67
2024/01/04 20:40:53;;;;;;;3.67;1.37;;;;;;;;;;20826848;28;20229;-67
2024/01/04 20:50:59;;;;;;;5.93;1.00;;;;;;;;;;20850515;28;20275;-66
2024/01/04 21:01:01;;;;;;;1.43;0.90;;;7.80;99.90;;;;;;20845291;28;20222;-67
2024/01/04 21:11:04;;;;;;;3.13;1.13;;;;;;;;;;20821561;28;20221;-67
2024/01/04 21:21:23;;;;;;;2.33;1.30;;;;;;;;;;20835115;28;20238;-66
2024/01/04 21:31:25;;;;;;;3.13;1.20;;;7.10;99.90;;;;;;20833564;28;20245;-67
2024/01/04 21:41:27;;;;;;;2.67;1.50;;;;;;;;;;20833846;28;20218;-67
2024/01/04 21:51:29;;;;;;;2.47;1.53;;;;;;;;;;20852632;28;20759;-66
2024/01/04 22:01:38;;;;;;;1.67;1.00;;;;;;;;;;20837473;28;20280;-67
2024/01/04 22:11:40;;;;;;;2.20;1.23;;;;;;;;;;20917937;22;20218;-71
2024/01/04 22:21:42;;;;;;;1.97;0.77;;;;;;;;;;20832605;28;20240;-72
2024/01/04 22:31:44;;;;;;;1.40;0.60;;;;;;;;;;20850755;28;20214;-70
2024/01/04 22:41:46;;;;;;;1.90;0.90;;;;;;;;;;20830700;28;20221;-70
2024/01/04 22:51:48;;;;;;;2.63;1.33;;;;;;;;;;20840944;28;20355;-70
2024/01/04 23:01:50;;;;;;;2.43;0.73;;;;;;;;;;20846061;28;20606;-71
2024/01/04 23:11:52;;;;;;;3.30;0.97;;;;;;;;;;20868299;28;20246;-71
2024/01/04 23:21:54;;;;;;;1.83;0.90;;;;;;;;;;20832157;28;20234;-71
2024/01/04 23:31:56;;;;;;;3.93;1.40;;;;;;;;;;20838172;28;20289;-71
2024/01/04 23:41:58;;;;;;;2.27;0.87;;;;;;;;;;20830844;28;20243;-71
2024/01/04 23:51:59;;;;;;;1.63;0.90;;;;;;;;;;20837693;28;20295;-71
